createdAt,value
2023-01-12T00:03:38.148Z,9
2023-01-12T00:08:44.925Z,8.6
2023-01-12T00:13:45.200Z,8.8
2023-01-12T00:19:38.110Z,9.1
2023-01-12T00:24:38.141Z,8.9
2023-01-12T00:29:45.105Z,9
2023-01-12T00:34:45.529Z,9
2023-01-12T00:40:38.197Z,9
2023-01-12T00:45:38.200Z,8.7
2023-01-12T00:50:45.688Z,8.9
2023-01-12T00:56:38.167Z,9
2023-01-12T01:01:45.589Z,9
2023-01-12T01:07:38.124Z,8.8
2023-01-12T01:12:44.908Z,9
2023-01-12T01:18:38.175Z,9.1
2023-01-12T01:23:38.188Z,9.1
2023-01-12T01:29:38.112Z,9.2
2023-01-12T01:34:38.198Z,9.2
2023-01-12T01:39:45.079Z,9
2023-01-12T01:45:38.092Z,9
2023-01-12T01:50:45.502Z,9.2
2023-01-12T01:56:38.160Z,9.1
2023-01-12T02:01:45.318Z,9.3
2023-01-12T02:07:38.176Z,9.4
2023-01-12T02:12:38.196Z,9.2
2023-01-12T02:17:45.615Z,9.2
2023-01-12T02:23:38.142Z,9.2
2023-01-12T02:28:38.106Z,9.1
2023-01-12T02:33:38.092Z,9.1
2023-01-12T02:38:38.103Z,9
2023-01-12T02:43:38.155Z,9.1
2023-01-12T02:48:44.904Z,8.9
2023-01-12T02:54:38.083Z,9.1
2023-01-12T02:59:38.192Z,9.1
2023-01-12T03:04:45.836Z,9.3
2023-01-12T03:10:38.090Z,9.1
2023-01-12T03:15:38.195Z,9.2
2023-01-12T03:20:45.501Z,9
2023-01-12T03:26:38.188Z,9
2023-01-12T03:31:45.074Z,9.2
2023-01-12T03:37:38.170Z,8.8
2023-01-12T03:42:44.997Z,9.1
2023-01-12T03:48:38.217Z,9.2
2023-01-12T03:53:38.170Z,9.2
2023-01-12T03:58:44.859Z,9.1
2023-01-12T04:03:44.916Z,9.2
2023-01-12T04:09:38.111Z,8.9
2023-01-12T04:14:38.160Z,9.2
2023-01-12T04:19:38.194Z,9
2023-01-12T04:24:38.215Z,9.1
2023-01-12T04:30:38.090Z,9.2
2023-01-12T04:35:38.177Z,8.9
2023-01-12T04:40:45.613Z,9.1
2023-01-12T04:46:38.199Z,9.1
2023-01-12T04:51:38.268Z,9.2
2023-01-12T04:56:44.957Z,9.1
2023-01-12T05:01:45.218Z,9.1
2023-01-12T05:07:38.200Z,9.1
2023-01-12T05:12:45.381Z,9.1
2023-01-12T05:17:45.424Z,9.2
2023-01-12T05:22:50.673Z,9.1
2023-01-12T05:28:38.163Z,8.9
2023-01-12T05:33:45.389Z,8.8
2023-01-12T05:38:45.502Z,9
2023-01-12T05:44:38.167Z,8.9
2023-01-12T05:49:44.892Z,8.8
2023-01-12T05:54:44.911Z,8.6
2023-01-12T05:59:45.332Z,8.8
2023-01-12T06:04:45.751Z,8.7
2023-01-12T06:10:38.115Z,8.6
2023-01-12T06:15:44.986Z,8.6
2023-01-12T06:20:44.947Z,8.8
2023-01-12T06:25:45.160Z,8.6
2023-01-12T06:30:45.255Z,8.4
2023-01-12T06:35:45.245Z,8.5
2023-01-12T06:41:38.156Z,8.5
2023-01-12T06:46:45.205Z,8.6
2023-01-12T06:51:45.684Z,8.6
2023-01-12T06:57:38.247Z,8.7
2023-01-12T07:02:45.530Z,8.8
2023-01-12T07:08:38.168Z,8.4
2023-01-12T07:13:45.353Z,8.5
2023-01-12T07:19:39.129Z,8.5
2023-01-12T07:24:38.166Z,8.6
2023-01-12T07:29:44.975Z,8.6
2023-01-12T07:34:45.522Z,8.8
2023-01-12T07:40:38.351Z,8.7
2023-01-12T07:45:44.904Z,8.8
2023-01-12T07:50:44.953Z,8.5
2023-01-12T07:55:45.003Z,8.4
2023-01-12T08:01:38.346Z,8.5
2023-01-12T08:06:38.170Z,8.6
2023-01-12T08:11:45.565Z,8.8
2023-01-12T08:17:38.206Z,8.9
2023-01-12T08:22:44.897Z,8.8
2023-01-12T08:27:45.251Z,8.9
2023-01-12T08:32:45.621Z,9.1
2023-01-12T08:38:45.709Z,9.3
2023-01-12T08:44:38.165Z,9.2
2023-01-12T08:50:38.193Z,9.4
2023-01-12T08:55:38.173Z,9.2
2023-01-12T09:00:45.517Z,9.3
2023-01-12T09:06:38.188Z,9.2
2023-01-12T09:11:38.189Z,9.3
2023-01-12T09:16:44.976Z,9.5
2023-01-12T09:22:38.144Z,9.5
2023-01-12T09:27:38.143Z,9.3
2023-01-12T09:32:38.138Z,9.5
2023-01-12T09:37:38.198Z,9.6
2023-01-12T09:43:38.133Z,9.6
2023-01-12T09:48:38.110Z,9.6
2023-01-12T09:53:38.131Z,9.6
2023-01-12T09:58:44.955Z,9.8
2023-01-12T10:03:45.385Z,9.7
2023-01-12T10:09:40.521Z,9.6
2023-01-12T10:14:45.217Z,9.7
2023-01-12T10:19:47.894Z,9.9
2023-01-12T10:25:38.151Z,9.8
2023-01-12T10:30:45.368Z,9.9
2023-01-12T10:36:38.126Z,10
2023-01-12T10:41:45.537Z,10
2023-01-12T10:47:38.208Z,10
2023-01-12T10:52:45.138Z,10.2
2023-01-12T10:58:38.153Z,10
2023-01-12T11:03:38.203Z,10.2
2023-01-12T11:08:45.499Z,10.2
2023-01-12T11:13:45.776Z,10.2
2023-01-12T11:19:38.196Z,10.1
2023-01-12T11:24:38.220Z,10.2
2023-01-12T11:29:45.049Z,10.3
2023-01-12T11:34:45.850Z,10.1
2023-01-12T11:40:38.158Z,10.2
2023-01-12T11:45:38.195Z,10.5
2023-01-12T11:50:44.913Z,10.4
2023-01-12T11:56:38.159Z,10.5
2023-01-12T12:01:38.167Z,10.5
2023-01-12T12:06:45.336Z,10.7
2023-01-12T12:12:38.126Z,10.6
2023-01-12T12:17:40.278Z,10.6
2023-01-12T12:22:44.973Z,10.7
2023-01-12T12:28:38.173Z,10.6
2023-01-12T12:33:45.662Z,10.9
2023-01-12T12:39:38.137Z,10.5
2023-01-12T12:44:38.172Z,10.6
2023-01-12T12:49:38.206Z,10.8
2023-01-12T12:54:45.560Z,10.8
2023-01-12T13:00:38.161Z,10.8
2023-01-12T13:05:38.165Z,10.8
2023-01-12T13:10:45.365Z,10.7
2023-01-12T13:15:46.594Z,10.5
2023-01-12T13:21:38.122Z,10.7
2023-01-12T13:26:38.302Z,10.6
2023-01-12T13:31:45.096Z,10.6
2023-01-12T13:36:46.593Z,10.5
2023-01-12T13:42:38.153Z,10.6
2023-01-12T13:47:38.230Z,10.7
2023-01-12T13:52:45.743Z,10.6
2023-01-12T13:58:38.213Z,10.6
2023-01-12T14:03:38.190Z,10.7
2023-01-12T14:08:51.931Z,10.8
2023-01-12T14:13:45.728Z,10.7
2023-01-12T14:19:38.229Z,10.7
2023-01-12T14:24:45.176Z,10.8
2023-01-12T14:29:45.463Z,10.7
2023-01-12T14:35:38.131Z,10.6
2023-01-12T14:40:38.124Z,10.5
2023-01-12T14:45:38.219Z,10.6
2023-01-12T14:50:38.168Z,10.6
2023-01-12T14:55:44.936Z,10.6
2023-01-12T15:00:45.033Z,10.5
2023-01-12T15:05:45.418Z,10.6
2023-01-12T15:11:38.178Z,10.6
2023-01-12T15:16:38.317Z,10.5
2023-01-12T15:21:38.211Z,10.6
2023-01-12T15:26:38.237Z,10.6
2023-01-12T15:31:44.996Z,10.6
2023-01-12T15:36:45.670Z,10.6
2023-01-12T15:42:38.166Z,10.8
2023-01-12T15:47:44.948Z,10.5
2023-01-12T15:53:38.186Z,10.6
2023-01-12T15:58:45.440Z,10.4
2023-01-12T16:04:43.462Z,10.6
2023-01-12T16:09:38.184Z,10.7
2023-01-12T16:14:45.090Z,10.7
2023-01-12T16:20:38.159Z,10.7
2023-01-12T16:25:38.409Z,10.5
2023-01-12T16:30:44.895Z,10.6
2023-01-12T16:35:44.919Z,10.6
2023-01-12T16:40:45.412Z,10.7
2023-01-12T16:46:38.181Z,10.8
2023-01-12T16:51:44.933Z,10.7
2023-01-12T16:56:45.512Z,10.7
2023-01-12T17:01:45.837Z,10.6
2023-01-12T17:07:38.230Z,10.6
2023-01-12T17:12:52.491Z,10.7
2023-01-12T17:18:38.112Z,10.5
2023-01-12T17:23:38.153Z,10.4
2023-01-12T17:28:38.163Z,10.6
2023-01-12T17:33:38.180Z,10.5
2023-01-12T17:38:45.238Z,10.6
2023-01-12T17:44:38.170Z,10.7
2023-01-12T17:49:45.407Z,10.6
2023-01-12T17:54:45.580Z,10.7
2023-01-12T18:00:38.181Z,10.8
2023-01-12T18:05:49.968Z,10.7
2023-01-12T18:11:38.144Z,10.7
2023-01-12T18:16:38.212Z,10.6
2023-01-12T18:21:45.602Z,10.6
2023-01-12T18:27:38.321Z,10.5
2023-01-12T18:32:44.889Z,10.6
2023-01-12T18:38:38.148Z,10.7
2023-01-12T18:43:38.472Z,10.6
2023-01-12T18:48:38.258Z,10.7
2023-01-12T18:53:45.721Z,10.7
2023-01-12T18:59:45.274Z,10.8
2023-01-12T19:05:38.788Z,10.7
2023-01-12T19:10:38.119Z,10.6
2023-01-12T19:15:38.228Z,10.8
2023-01-12T19:20:44.891Z,10.6
2023-01-12T19:25:44.916Z,10.8
2023-01-12T19:31:38.213Z,10.8
2023-01-12T19:36:44.955Z,10.7
2023-01-12T19:42:38.214Z,10.6
2023-01-12T19:47:44.981Z,10.7
2023-01-12T19:53:38.167Z,10.9
2023-01-12T19:58:38.198Z,10.7
2023-01-12T20:03:45.740Z,10.8
2023-01-12T20:09:38.168Z,10.9
2023-01-12T20:14:38.229Z,10.8
2023-01-12T20:19:45.461Z,10.9
2023-01-12T20:25:38.152Z,10.8
2023-01-12T20:30:40.450Z,11
2023-01-12T20:35:45.585Z,11
2023-01-12T20:41:38.129Z,10.8
2023-01-12T20:46:44.924Z,10.8
2023-01-12T20:51:45.897Z,10.8
2023-01-12T20:57:38.134Z,10.8
2023-01-12T21:02:38.192Z,10.8
2023-01-12T21:07:38.244Z,10.8
2023-01-12T21:12:43.868Z,10.8
2023-01-12T21:17:44.925Z,10.9
2023-01-12T21:23:38.179Z,10.9
2023-01-12T21:28:38.201Z,10.8
2023-01-12T21:33:44.978Z,10.6
2023-01-12T21:39:38.261Z,10.8
2023-01-12T21:44:45.558Z,10.8
2023-01-12T21:50:38.204Z,10.9
2023-01-12T21:55:45.750Z,10.8
2023-01-12T22:01:38.260Z,10.7
2023-01-12T22:06:38.143Z,10.7
2023-01-12T22:11:38.235Z,10.7
2023-01-12T22:16:45.045Z,10.7
2023-01-12T22:21:45.070Z,10.8
2023-01-12T22:27:38.223Z,10.9
2023-01-12T22:32:45.250Z,10.6
2023-01-12T22:38:38.142Z,10.4
2023-01-12T22:43:38.333Z,10.7
2023-01-12T22:48:45.510Z,10.9
2023-01-12T22:54:38.172Z,10.8
2023-01-12T22:59:44.949Z,10.9
2023-01-12T23:04:45.006Z,10.8
2023-01-12T23:09:45.634Z,11
2023-01-12T23:15:38.314Z,10.8
2023-01-12T23:20:45.262Z,10.9
2023-01-12T23:25:45.771Z,11.1
2023-01-12T23:31:38.275Z,11.1
2023-01-12T23:36:38.184Z,11.1
2023-01-12T23:41:38.240Z,11.1
2023-01-12T23:46:38.262Z,10.7
2023-01-12T23:51:45.608Z,10.8
2023-01-12T23:57:38.281Z,11.1
